Aviation Digital Data Service (ADDS)

Output produced by METARs form (1524 UTC 01 March 2021)
found at http://aviationweather.gov/metar/data/
 
METAR text: KCPW 011515Z AUTO 00000KT 10SM CLR M07/M23 A3032 RMK AO2
Conditions at: KCPW (WOLF CREEK PASS , CO, US) observed 1515 UTC 01 March 2021
Temperature: -7.0°C (19°F)
Dewpoint: -23.0°C (-9°F) [RH = 27%]
Pressure (altimeter): 30.32 inches Hg (1026.8 mb)
Winds: calm
Visibility: 10 or more miles (16+ km)
Ceiling: at least 12,000 feet AGL
Clouds: sky clear below 12,000 feet AGL
Weather: automated observation with no human augmentation;
there may or may not be significant weather present at this time

METAR text: KCPW 011455Z AUTO 00000KT 10SM CLR M08/M26 A3030 RMK AO2
Conditions at: KCPW (WOLF CREEK PASS , CO, US) observed 1455 UTC 01 March 2021
Temperature: -8.0°C (18°F)
Dewpoint: -26.0°C (-15°F) [RH = 22%]
Pressure (altimeter): 30.30 inches Hg (1026.2 mb)
Winds: calm
Visibility: 10 or more miles (16+ km)
Ceiling: at least 12,000 feet AGL
Clouds: sky clear below 12,000 feet AGL
Weather: automated observation with no human augmentation;
there may or may not be significant weather present at this time

METAR text: KCPW 011435Z AUTO 00000KT 10SM CLR M09/M26 A3029 RMK AO2
Conditions at: KCPW (WOLF CREEK PASS , CO, US) observed 1435 UTC 01 March 2021
Temperature: -9.0°C (16°F)
Dewpoint: -26.0°C (-15°F) [RH = 24%]
Pressure (altimeter): 30.29 inches Hg (1025.8 mb)
Winds: calm
Visibility: 10 or more miles (16+ km)
Ceiling: at least 12,000 feet AGL
Clouds: sky clear below 12,000 feet AGL
Weather: automated observation with no human augmentation;
there may or may not be significant weather present at this time